createdAt,value
2019-05-16T00:00:19.349Z,23.87
2019-05-16T00:01:19.614Z,23.79
2019-05-16T00:02:19.232Z,23.57
2019-05-16T00:03:19.233Z,23.88
2019-05-16T00:04:19.200Z,23.77
2019-05-16T00:05:19.210Z,23.87
2019-05-16T00:06:19.181Z,23.87
2019-05-16T00:07:19.380Z,24.18
2019-05-16T00:08:19.161Z,23.68
2019-05-16T00:09:19.156Z,23.79
2019-05-16T00:10:19.142Z,23.79
2019-05-16T00:11:19.156Z,23.87
2019-05-16T00:12:19.126Z,23.88
2019-05-16T00:13:19.100Z,23.77
2019-05-16T00:14:19.109Z,23.77
2019-05-16T00:15:19.089Z,23.87
2019-05-16T00:16:19.095Z,23.68
2019-05-16T00:17:19.073Z,23.79
2019-05-16T00:18:19.067Z,23.79
2019-05-16T00:19:19.038Z,23.88
2019-05-16T00:20:19.285Z,23.68
2019-05-16T00:21:19.010Z,23.68
2019-05-16T00:22:19.005Z,23.88
2019-05-16T00:23:18.994Z,23.88
2019-05-16T00:24:18.993Z,23.88
2019-05-16T00:25:18.994Z,23.79
2019-05-16T00:26:19.741Z,23.79
2019-05-16T00:27:18.953Z,23.28
2019-05-16T00:28:18.941Z,23.49
2019-05-16T00:29:18.921Z,23.58
2019-05-16T00:30:18.931Z,23.58
2019-05-16T00:31:18.909Z,23.28
2019-05-16T00:32:19.199Z,23.58
2019-05-16T00:33:18.889Z,23.38
2019-05-16T00:34:18.976Z,23.28
2019-05-16T00:35:18.988Z,23.58
2019-05-16T00:36:19.117Z,23.88
2019-05-16T00:37:18.846Z,23.49
2019-05-16T00:38:18.833Z,23.58
2019-05-16T00:39:18.930Z,23.58
2019-05-16T00:40:19.025Z,23.49
2019-05-16T00:41:18.802Z,23.58
2019-05-16T00:42:18.796Z,23.79
2019-05-16T00:43:18.775Z,23.88
2019-05-16T00:44:19.025Z,23.58
2019-05-16T00:45:18.876Z,23.49
2019-05-16T00:46:20.086Z,23.58
2019-05-16T00:47:18.765Z,23.87
2019-05-16T00:48:18.717Z,23.49
2019-05-16T00:49:18.797Z,23.49
2019-05-16T00:50:18.706Z,23.49
2019-05-16T00:51:18.697Z,23.88
2019-05-16T00:52:18.676Z,24.18
2019-05-16T00:53:18.670Z,23.49
2019-05-16T00:54:18.739Z,24.08
2019-05-16T00:55:18.654Z,23.49
2019-05-16T00:56:18.842Z,23.58
2019-05-16T00:57:18.932Z,24.08
2019-05-16T00:58:19.068Z,24.18
2019-05-16T00:59:18.596Z,23.58
2019-05-16T01:00:18.585Z,23.79
2019-05-16T01:01:19.111Z,23.49
2019-05-16T01:02:18.573Z,23.68
2019-05-16T01:03:20.231Z,23.99
2019-05-16T01:04:18.546Z,24.08
2019-05-16T01:05:19.185Z,23.88
2019-05-16T01:06:22.518Z,24.29
2019-05-16T01:07:18.780Z,24.08
2019-05-16T01:08:19.096Z,24.08
2019-05-16T01:09:18.899Z,24.29
2019-05-16T01:10:18.528Z,24.18
2019-05-16T01:11:18.673Z,24.29
2019-05-16T01:12:18.446Z,24.18
2019-05-16T01:13:18.721Z,24.18
2019-05-16T01:14:18.428Z,24.08
2019-05-16T01:15:18.568Z,24.58
2019-05-16T01:16:18.824Z,24.79
2019-05-16T01:17:18.396Z,24.58
2019-05-16T01:18:18.895Z,24.79
2019-05-16T01:19:18.731Z,24.48
2019-05-16T01:20:19.209Z,24.18
2019-05-16T01:21:18.668Z,24.38
2019-05-16T01:22:18.765Z,24.38
2019-05-16T01:23:18.469Z,24.79
2019-05-16T01:24:18.895Z,24.38
2019-05-16T01:25:19.458Z,24.38
2019-05-16T01:26:18.680Z,24.68
2019-05-16T01:27:18.533Z,24.68
2019-05-16T01:28:18.310Z,24.38
2019-05-16T01:29:18.900Z,24.68
2019-05-16T01:30:18.798Z,24.68
2019-05-16T01:31:19.098Z,24.48
2019-05-16T01:32:18.993Z,24.48
2019-05-16T01:33:19.201Z,24.48
2019-05-16T01:34:18.268Z,24.48
2019-05-16T01:35:18.802Z,24.48
2019-05-16T01:36:31.829Z,24.48
2019-05-16T01:37:19.164Z,24.58
2019-05-16T01:38:18.310Z,24.58
2019-05-16T01:39:18.311Z,24.58
2019-05-16T01:40:18.937Z,24.48
2019-05-16T01:41:18.186Z,24.68
2019-05-16T01:42:18.511Z,24.18
2019-05-16T01:43:18.115Z,24.08
2019-05-16T01:44:18.435Z,23.58
2019-05-16T01:45:18.820Z,24.68
2019-05-16T01:46:18.307Z,24.29
2019-05-16T01:47:18.395Z,23.79
2019-05-16T01:48:19.151Z,24.58
2019-05-16T01:49:18.765Z,24.08
2019-05-16T01:50:18.331Z,23.99
2019-05-16T01:51:18.584Z,24.18
2019-05-16T01:52:18.009Z,24.38
2019-05-16T01:53:18.163Z,24.48
2019-05-16T01:54:18.121Z,24.68
2019-05-16T01:55:18.622Z,24.79
2019-05-16T01:56:18.135Z,24.18
2019-05-16T01:57:18.236Z,24.08
2019-05-16T01:58:19.976Z,24.38
2019-05-16T01:59:18.259Z,24.48
2019-05-16T02:00:24.551Z,24.38
2019-05-16T02:01:19.335Z,24.29
2019-05-16T02:02:18.376Z,24.48
2019-05-16T02:03:18.980Z,24.48
2019-05-16T02:04:18.365Z,24.38
2019-05-16T02:05:18.739Z,24.48
2019-05-16T02:06:18.448Z,24.18
2019-05-16T02:07:18.808Z,24.18
2019-05-16T02:08:18.344Z,24.58
2019-05-16T02:09:18.896Z,24.08
2019-05-16T02:10:18.262Z,24.29
2019-05-16T02:11:18.218Z,24.29
2019-05-16T02:12:18.476Z,24.48
2019-05-16T02:13:18.186Z,24.58
2019-05-16T02:14:17.801Z,24.58
2019-05-16T02:15:18.339Z,24.68
2019-05-16T02:16:18.781Z,24.79
2019-05-16T02:17:18.421Z,24.88
2019-05-16T02:18:18.459Z,24.79
2019-05-16T02:19:18.776Z,24.48
2019-05-16T02:20:18.084Z,24.58
2019-05-16T02:21:18.230Z,24.79
2019-05-16T02:22:18.000Z,24.79
2019-05-16T02:23:18.833Z,24.48
2019-05-16T02:24:18.293Z,24.48
2019-05-16T02:25:18.518Z,25.18
2019-05-16T02:26:19.098Z,25.09
2019-05-16T02:27:18.221Z,25.18
2019-05-16T02:28:20.169Z,25.18
2019-05-16T02:29:20.554Z,25.18
2019-05-16T02:30:21.269Z,25.18
2019-05-16T02:31:17.570Z,25.18
2019-05-16T02:32:17.549Z,25.18
2019-05-16T02:33:20.890Z,24.98
2019-05-16T02:34:17.561Z,25.09
2019-05-16T02:35:20.700Z,25.18
2019-05-16T02:36:21.271Z,25.09
2019-05-16T02:37:28.793Z,24.98
2019-05-16T02:38:21.121Z,24.98
2019-05-16T02:39:17.484Z,25.09
2019-05-16T02:40:20.803Z,24.68
2019-05-16T02:41:17.471Z,24.58
2019-05-16T02:42:17.457Z,24.79
2019-05-16T02:43:17.474Z,24.68
2019-05-16T02:44:24.129Z,24.79
2019-05-16T02:45:23.902Z,24.68
2019-05-16T02:46:21.567Z,24.49
2019-05-16T02:47:17.389Z,25.18
2019-05-16T02:48:20.923Z,25.18
2019-05-16T02:49:17.377Z,25.20
2019-05-16T02:50:17.366Z,24.08
2019-05-16T02:51:17.350Z,25.70
2019-05-16T02:52:17.329Z,24.08
2019-05-16T02:53:17.351Z,25.09
2019-05-16T02:54:17.377Z,25.68
2019-05-16T02:55:17.296Z,24.38
2019-05-16T02:56:17.311Z,24.18
2019-05-16T02:57:17.313Z,25.48
2019-05-16T02:58:17.306Z,25.59
2019-05-16T02:59:20.357Z,24.10
2019-05-16T03:00:17.258Z,24.58
2019-05-16T03:01:17.246Z,24.29
2019-05-16T03:02:20.274Z,25.68
2019-05-16T03:03:17.227Z,25.59
2019-05-16T03:04:17.200Z,25.78
2019-05-16T03:05:20.600Z,25.28
2019-05-16T03:06:17.179Z,25.28
2019-05-16T03:07:32.957Z,25.59
2019-05-16T03:08:20.807Z,25.38
2019-05-16T03:09:17.177Z,25.38
2019-05-16T03:10:20.131Z,25.09
2019-05-16T03:11:17.120Z,25.28
2019-05-16T03:12:17.117Z,25.68
2019-05-16T03:13:17.115Z,25.78
2019-05-16T03:14:17.089Z,25.28
2019-05-16T03:15:17.101Z,24.88
2019-05-16T03:16:17.065Z,25.09
2019-05-16T03:17:17.083Z,24.88
2019-05-16T03:18:17.051Z,24.88
2019-05-16T03:19:17.064Z,24.79
2019-05-16T03:20:17.032Z,25.09
2019-05-16T03:21:17.019Z,25.68
2019-05-16T03:22:17.017Z,24.98
2019-05-16T03:23:17.008Z,25.78
2019-05-16T03:24:16.999Z,26.29
2019-05-16T03:25:16.973Z,25.78
2019-05-16T03:26:16.959Z,24.79
2019-05-16T03:27:16.952Z,25.40
2019-05-16T03:28:16.945Z,25.98
2019-05-16T03:29:16.933Z,25.78
2019-05-16T03:30:17.354Z,26.18
2019-05-16T03:31:16.901Z,25.89
2019-05-16T03:32:16.899Z,25.89
2019-05-16T03:33:30.175Z,26.08
2019-05-16T03:34:24.898Z,26.08
2019-05-16T03:35:23.959Z,25.78
2019-05-16T03:36:24.341Z,25.48
2019-05-16T03:37:17.828Z,25.59
2019-05-16T03:38:16.829Z,25.59
2019-05-16T03:39:16.881Z,25.78
2019-05-16T03:40:16.793Z,25.78
2019-05-16T03:41:16.806Z,25.59
2019-05-16T03:42:16.862Z,25.38
2019-05-16T03:43:16.760Z,25.89
2019-05-16T03:44:16.754Z,25.48
2019-05-16T03:45:16.737Z,25.48
2019-05-16T03:46:16.727Z,25.48
2019-05-16T03:47:16.718Z,25.68
2019-05-16T03:48:16.709Z,25.89
2019-05-16T03:49:16.704Z,25.28
2019-05-16T03:50:16.695Z,25.89
2019-05-16T03:51:16.697Z,25.89
2019-05-16T03:52:16.661Z,25.48
2019-05-16T03:53:16.656Z,25.89
2019-05-16T03:54:16.661Z,25.99
2019-05-16T03:55:16.641Z,25.49
2019-05-16T03:56:16.619Z,25.78
2019-05-16T03:57:16.618Z,25.89
2019-05-16T03:58:16.604Z,25.68
2019-05-16T03:59:16.604Z,25.59
2019-05-16T04:00:16.632Z,25.59
2019-05-16T04:01:16.558Z,25.98
2019-05-16T04:02:16.577Z,25.60
2019-05-16T04:03:16.539Z,25.89
2019-05-16T04:04:16.591Z,25.98
2019-05-16T04:05:16.526Z,25.89
2019-05-16T04:06:16.514Z,25.68
2019-05-16T04:07:16.504Z,25.38
2019-05-16T04:08:20.721Z,25.60
2019-05-16T04:09:20.848Z,25.68
2019-05-16T04:10:16.474Z,25.98
2019-05-16T04:11:22.169Z,25.68
2019-05-16T04:12:17.438Z,25.89
2019-05-16T04:13:16.427Z,25.59
2019-05-16T04:14:16.442Z,25.49
2019-05-16T04:15:16.407Z,25.59
2019-05-16T04:16:16.410Z,25.48
2019-05-16T04:17:16.393Z,25.68
2019-05-16T04:18:16.387Z,25.38
2019-05-16T04:19:16.387Z,25.98
2019-05-16T04:20:16.357Z,25.98
2019-05-16T04:21:17.865Z,25.78
2019-05-16T04:22:17.350Z,25.89
2019-05-16T04:23:16.330Z,26.78
2019-05-16T04:24:16.308Z,26.78
2019-05-16T04:25:16.317Z,26.48
2019-05-16T04:26:16.306Z,26.68
2019-05-16T04:27:16.275Z,26.28
2019-05-16T04:28:16.267Z,27.28
2019-05-16T04:29:16.290Z,26.48
2019-05-16T04:30:16.244Z,26.78
2019-05-16T04:31:16.226Z,27.08
2019-05-16T04:32:16.222Z,27.58
2019-05-16T04:33:16.209Z,27.08
2019-05-16T04:34:16.216Z,27.68
2019-05-16T04:35:16.189Z,27.88
2019-05-16T04:36:16.172Z,27.88
2019-05-16T04:37:16.181Z,27.88
2019-05-16T04:38:30.271Z,27.89
2019-05-16T04:39:20.615Z,27.68
2019-05-16T04:40:16.151Z,27.88
2019-05-16T04:41:16.117Z,27.28
2019-05-16T04:42:16.116Z,27.58
2019-05-16T04:43:16.110Z,27.48
2019-05-16T04:44:16.094Z,27.48
2019-05-16T04:45:16.093Z,27.48
2019-05-16T04:46:16.066Z,27.38
2019-05-16T04:47:16.056Z,27.48
2019-05-16T04:48:16.041Z,27.28
2019-05-16T04:49:16.091Z,27.48
2019-05-16T04:50:16.038Z,28.09
2019-05-16T04:51:16.017Z,27.80
2019-05-16T04:52:16.010Z,27.48
2019-05-16T04:53:16.107Z,28.00
2019-05-16T04:54:15.978Z,27.48
2019-05-16T04:55:16.003Z,27.89
2019-05-16T04:56:15.958Z,27.89
2019-05-16T04:57:15.943Z,27.50
2019-05-16T04:58:15.945Z,27.89
2019-05-16T04:59:17.001Z,27.89
2019-05-16T05:00:15.915Z,27.50
2019-05-16T05:01:15.906Z,27.70
2019-05-16T05:02:15.903Z,27.70
2019-05-16T05:03:15.879Z,27.89
2019-05-16T05:04:15.870Z,27.89
2019-05-16T05:05:15.862Z,27.70
2019-05-16T05:06:15.888Z,27.39
2019-05-16T05:07:15.847Z,27.39
2019-05-16T05:08:15.838Z,27.09
2019-05-16T05:09:15.846Z,27.29
2019-05-16T05:10:15.800Z,27.50
2019-05-16T05:11:15.888Z,27.50
2019-05-16T05:12:15.788Z,27.39
2019-05-16T05:13:15.770Z,27.50
2019-05-16T05:14:15.794Z,27.31
2019-05-16T05:15:15.758Z,27.51
2019-05-16T05:16:15.746Z,27.51
2019-05-16T05:17:15.738Z,27.50
2019-05-16T05:18:15.714Z,27.39
2019-05-16T05:19:15.710Z,27.51
2019-05-16T05:20:15.706Z,28.00
2019-05-16T05:21:15.722Z,27.29
2019-05-16T05:22:15.670Z,27.29
2019-05-16T05:23:15.663Z,27.51
2019-05-16T05:24:15.642Z,27.51
2019-05-16T05:25:15.661Z,27.71
2019-05-16T05:26:15.679Z,27.31
2019-05-16T05:27:15.621Z,27.41
2019-05-16T05:28:15.609Z,27.31
2019-05-16T05:29:15.589Z,27.50
2019-05-16T05:30:15.586Z,27.51
2019-05-16T05:31:15.591Z,27.61
2019-05-16T05:32:15.559Z,27.31
2019-05-16T05:33:15.558Z,27.41
2019-05-16T05:34:15.543Z,27.61
2019-05-16T05:35:15.553Z,27.51
2019-05-16T05:36:15.524Z,28.11
2019-05-16T05:37:15.525Z,27.61
2019-05-16T05:38:15.492Z,27.41
2019-05-16T05:39:15.759Z,27.11
2019-05-16T05:40:15.471Z,27.11
2019-05-16T05:41:15.492Z,27.21
2019-05-16T05:42:15.446Z,27.51
2019-05-16T05:43:15.431Z,27.51
2019-05-16T05:44:15.422Z,27.41
2019-05-16T05:45:15.442Z,27.51
2019-05-16T05:46:15.404Z,27.51
2019-05-16T05:47:15.397Z,27.31
2019-05-16T05:48:15.389Z,27.59
2019-05-16T05:49:15.417Z,27.61
2019-05-16T05:50:15.371Z,27.51
2019-05-16T05:51:15.352Z,27.89
2019-05-16T05:52:15.400Z,27.89
2019-05-16T05:53:15.337Z,27.89
2019-05-16T05:54:15.314Z,27.51
2019-05-16T05:55:15.311Z,27.89
2019-05-16T05:56:15.312Z,28.09
2019-05-16T05:57:15.285Z,27.70
2019-05-16T05:58:15.268Z,27.70
2019-05-16T05:59:15.264Z,27.59
2019-05-16T06:00:15.270Z,27.59
2019-05-16T06:01:15.251Z,27.20
2019-05-16T06:02:15.249Z,27.20
2019-05-16T06:03:15.216Z,27.09
2019-05-16T06:04:15.210Z,27.29
2019-05-16T06:05:15.191Z,27.29
2019-05-16T06:06:15.197Z,27.39
2019-05-16T06:07:15.194Z,27.09
2019-05-16T06:08:15.169Z,27.70
2019-05-16T06:09:26.284Z,27.59
2019-05-16T06:10:16.137Z,27.20
2019-05-16T06:11:15.134Z,27.39
2019-05-16T06:12:15.135Z,27.39
2019-05-16T06:13:15.134Z,27.39
2019-05-16T06:14:15.108Z,27.09
2019-05-16T06:15:15.119Z,27.00
2019-05-16T06:16:15.091Z,26.59
2019-05-16T06:17:15.138Z,27.09
2019-05-16T06:18:15.454Z,27.29
2019-05-16T06:19:15.069Z,27.29
2019-05-16T06:20:15.116Z,27.20
2019-05-16T06:21:15.040Z,27.29
2019-05-16T06:22:15.045Z,27.09
2019-05-16T06:23:15.076Z,27.80
2019-05-16T06:24:16.328Z,27.80
2019-05-16T06:25:15.046Z,27.80
2019-05-16T06:26:14.959Z,27.50
2019-05-16T06:27:15.004Z,27.39
2019-05-16T06:28:14.947Z,27.39
2019-05-16T06:29:14.946Z,27.70
2019-05-16T06:30:14.918Z,27.70
2019-05-16T06:31:14.906Z,27.50
2019-05-16T06:32:14.890Z,27.29
2019-05-16T06:33:14.887Z,27.59
2019-05-16T06:34:15.452Z,27.89
2019-05-16T06:35:14.869Z,27.09
2019-05-16T06:36:14.871Z,27.29
2019-05-16T06:37:14.845Z,27.28
2019-05-16T06:38:14.841Z,27.29
2019-05-16T06:39:14.836Z,27.29
2019-05-16T06:40:14.809Z,27.29
2019-05-16T06:41:14.797Z,27.00
2019-05-16T06:42:14.783Z,27.09
2019-05-16T06:43:14.778Z,26.78
2019-05-16T06:44:14.774Z,27.20
2019-05-16T06:45:14.757Z,26.98
2019-05-16T06:46:14.741Z,27.28
2019-05-16T06:47:19.746Z,26.88
2019-05-16T06:48:15.731Z,27.08
2019-05-16T06:49:14.713Z,27.48
2019-05-16T06:50:14.704Z,27.39
2019-05-16T06:51:14.709Z,26.58
2019-05-16T06:52:14.695Z,27.28
2019-05-16T06:53:14.730Z,27.28
2019-05-16T06:54:14.660Z,26.88
2019-05-16T06:55:14.642Z,27.19
2019-05-16T06:56:14.649Z,27.28
2019-05-16T06:57:14.628Z,27.20
2019-05-16T06:58:14.622Z,26.98
2019-05-16T06:59:14.620Z,26.78
2019-05-16T07:00:14.580Z,27.29
2019-05-16T07:01:14.586Z,27.19
2019-05-16T07:02:26.721Z,26.98
2019-05-16T07:03:15.590Z,27.08
2019-05-16T07:04:14.550Z,27.28
2019-05-16T07:05:14.524Z,27.19
2019-05-16T07:06:36.036Z,26.58
2019-05-16T07:07:15.520Z,27.08
2019-05-16T07:08:14.528Z,27.88
2019-05-16T07:09:14.510Z,27.58
2019-05-16T07:10:14.489Z,27.80
2019-05-16T07:11:14.526Z,27.70
2019-05-16T07:12:14.461Z,27.80
2019-05-16T07:13:14.441Z,27.50
2019-05-16T07:14:14.427Z,27.29
2019-05-16T07:15:14.673Z,27.50
2019-05-16T07:16:14.415Z,27.89
2019-05-16T07:17:14.413Z,27.39
2019-05-16T07:18:14.406Z,27.50
2019-05-16T07:19:14.385Z,27.48
2019-05-16T07:20:14.365Z,27.80
2019-05-16T07:21:14.354Z,27.78
2019-05-16T07:22:14.337Z,27.50
2019-05-16T07:23:14.330Z,27.88
2019-05-16T07:24:16.899Z,27.50
2019-05-16T07:25:14.318Z,27.88
2019-05-16T07:26:14.307Z,27.28
2019-05-16T07:27:14.352Z,27.68
2019-05-16T07:28:14.281Z,28.08
2019-05-16T07:29:14.284Z,27.48
2019-05-16T07:30:14.281Z,27.88
2019-05-16T07:31:18.461Z,27.78
2019-05-16T07:32:14.244Z,27.88
2019-05-16T07:33:14.294Z,27.48
2019-05-16T07:34:14.741Z,27.68
2019-05-16T07:35:14.246Z,27.48
2019-05-16T07:36:15.950Z,27.08
2019-05-16T07:37:14.190Z,28.18
2019-05-16T07:38:14.206Z,27.68
2019-05-16T07:39:14.164Z,27.47
2019-05-16T07:40:20.101Z,27.88
2019-05-16T07:41:15.212Z,27.78
2019-05-16T07:42:14.152Z,27.88
2019-05-16T07:43:14.125Z,27.77
2019-05-16T07:44:14.099Z,27.27
2019-05-16T07:45:14.107Z,27.28
2019-05-16T07:46:14.084Z,27.07
2019-05-16T07:47:14.061Z,27.08
2019-05-16T07:48:14.054Z,26.77
2019-05-16T07:49:14.065Z,26.77
2019-05-16T07:50:14.042Z,26.98
2019-05-16T07:51:14.023Z,27.27
2019-05-16T07:52:14.012Z,26.97
2019-05-16T07:53:14.019Z,26.77
2019-05-16T07:54:14.010Z,26.87
2019-05-16T07:55:13.982Z,27.17
2019-05-16T07:56:13.969Z,26.87
2019-05-16T07:57:19.577Z,26.47
2019-05-16T07:58:14.957Z,26.47
2019-05-16T07:59:13.946Z,26.67
2019-05-16T08:00:13.916Z,26.67
2019-05-16T08:01:13.915Z,26.57
2019-05-16T08:02:13.977Z,26.77
2019-05-16T08:03:13.891Z,26.77
2019-05-16T08:04:13.887Z,26.47
2019-05-16T08:05:13.937Z,26.47
2019-05-16T08:06:13.863Z,26.67
2019-05-16T08:07:13.844Z,27.07
2019-05-16T08:08:13.845Z,26.67
2019-05-16T08:09:13.855Z,26.77
2019-05-16T08:10:13.820Z,26.97
2019-05-16T08:11:13.803Z,26.46
2019-05-16T08:12:13.786Z,26.67
2019-05-16T08:13:17.194Z,26.77
2019-05-16T08:14:13.778Z,26.67
2019-05-16T08:15:13.756Z,26.76
2019-05-16T08:16:13.733Z,26.17
2019-05-16T08:17:13.727Z,26.26
2019-05-16T08:18:13.715Z,25.86
2019-05-16T08:19:13.714Z,25.96
2019-05-16T08:20:13.698Z,26.65
2019-05-16T08:21:16.753Z,26.67
2019-05-16T08:22:13.674Z,26.67
2019-05-16T08:23:13.659Z,26.27
2019-05-16T08:24:14.935Z,26.16
2019-05-16T08:25:13.659Z,26.35
2019-05-16T08:26:13.637Z,26.57
2019-05-16T08:27:13.630Z,26.06
2019-05-16T08:28:13.617Z,25.96
2019-05-16T08:29:13.774Z,26.06
2019-05-16T08:30:13.589Z,26.77
2019-05-16T08:31:13.617Z,26.76
2019-05-16T08:32:13.571Z,26.16
2019-05-16T08:33:13.761Z,25.66
2019-05-16T08:34:13.567Z,26.46
2019-05-16T08:35:13.531Z,25.46
2019-05-16T08:36:13.545Z,25.46
2019-05-16T08:37:34.127Z,25.86
2019-05-16T08:38:14.512Z,25.56
2019-05-16T08:39:13.481Z,25.56
2019-05-16T08:40:13.485Z,25.46
2019-05-16T08:41:17.121Z,25.46
2019-05-16T08:42:13.481Z,25.96
2019-05-16T08:43:13.446Z,26.35
2019-05-16T08:44:13.421Z,26.27
2019-05-16T08:45:13.664Z,26.56
2019-05-16T08:46:13.400Z,26.26
2019-05-16T08:47:13.392Z,26.35
2019-05-16T08:48:13.391Z,26.76
2019-05-16T08:49:13.389Z,26.35
2019-05-16T08:50:15.421Z,26.26
2019-05-16T08:51:13.352Z,25.96
2019-05-16T08:52:13.346Z,26.26
2019-05-16T08:53:13.969Z,25.66
2019-05-16T08:54:13.741Z,25.76
2019-05-16T08:55:13.738Z,25.36
2019-05-16T08:56:13.443Z,25.46
2019-05-16T08:58:14.262Z,25.46
2019-05-16T08:59:13.657Z,25.56
2019-05-16T09:00:15.142Z,25.76
2019-05-16T09:02:14.220Z,26.16
2019-05-16T09:03:13.212Z,25.86
2019-05-16T09:04:13.226Z,26.26
2019-05-16T09:05:13.897Z,25.56
2019-05-16T09:06:13.196Z,24.76
2019-05-16T09:07:13.224Z,24.76
2019-05-16T09:08:13.161Z,26.26
2019-05-16T09:09:29.769Z,25.36
2019-05-16T09:10:15.891Z,25.66
2019-05-16T09:10:40.498Z,25.66
2019-05-16T09:10:45.702Z,25.76
2019-05-16T09:11:29.377Z,25.66
2019-05-16T09:12:14.110Z,25.46
2019-05-16T09:13:13.097Z,25.56
2019-05-16T09:14:13.094Z,25.96
2019-05-16T09:15:13.092Z,25.36
2019-05-16T09:16:13.071Z,25.46
2019-05-16T09:17:13.054Z,25.46
2019-05-16T09:18:13.042Z,25.66
2019-05-16T09:19:13.030Z,25.56
2019-05-16T09:20:13.025Z,25.76
2019-05-16T09:21:13.035Z,25.76
2019-05-16T09:22:13.013Z,25.26
2019-05-16T09:23:12.987Z,25.26
2019-05-16T09:24:12.980Z,25.56
2019-05-16T09:25:12.968Z,25.56
2019-05-16T09:26:16.024Z,25.76
2019-05-16T09:27:13.945Z,25.76
2019-05-16T09:28:12.950Z,25.46
2019-05-16T09:29:12.940Z,26.16
2019-05-16T09:30:12.921Z,25.36
2019-05-16T09:31:12.905Z,25.66
2019-05-16T09:32:17.902Z,25.46
2019-05-16T09:33:13.889Z,25.46
2019-05-16T09:34:12.872Z,25.76
2019-05-16T09:35:12.866Z,25.36
2019-05-16T09:36:12.852Z,26.35
2019-05-16T09:37:13.107Z,26.04
2019-05-16T09:38:12.818Z,25.26
2019-05-16T09:39:12.810Z,25.05
2019-05-16T09:40:12.802Z,25.56
2019-05-16T09:41:12.816Z,25.45
2019-05-16T09:42:12.782Z,25.55
2019-05-16T09:43:12.781Z,26.34
2019-05-16T09:44:12.762Z,25.45
2019-05-16T09:45:12.765Z,25.65
2019-05-16T09:46:12.742Z,25.85
2019-05-16T09:47:12.725Z,25.85
2019-05-16T09:48:12.718Z,26.23
2019-05-16T09:49:19.320Z,25.63
2019-05-16T09:50:13.722Z,25.73
2019-05-16T09:51:12.696Z,25.55
2019-05-16T09:52:12.671Z,25.34
2019-05-16T09:53:12.661Z,25.34
2019-05-16T09:54:12.653Z,25.34
2019-05-16T09:55:12.631Z,25.23
2019-05-16T09:56:12.639Z,26.14
2019-05-16T09:57:12.624Z,26.53
2019-05-16T09:58:12.602Z,26.23
2019-05-16T09:59:12.601Z,25.93
2019-05-16T10:00:12.582Z,26.33
2019-05-16T10:01:12.586Z,25.93
2019-05-16T10:02:12.580Z,26.23
2019-05-16T10:03:12.558Z,26.23
2019-05-16T10:04:12.530Z,26.43
2019-05-16T10:05:13.650Z,26.33
2019-05-16T10:06:12.532Z,25.84
2019-05-16T10:07:12.519Z,25.73
2019-05-16T10:08:12.486Z,26.14
2019-05-16T10:09:12.507Z,26.43
2019-05-16T10:10:12.472Z,26.03
2019-05-16T10:11:12.488Z,26.33
2019-05-16T10:12:15.617Z,26.23
2019-05-16T10:13:13.459Z,26.33
2019-05-16T10:14:12.431Z,26.14
2019-05-16T10:15:12.413Z,25.43
2019-05-16T10:16:12.407Z,25.42
2019-05-16T10:17:12.402Z,25.23
2019-05-16T10:18:12.386Z,25.13
2019-05-16T10:19:12.384Z,25.54
2019-05-16T10:20:12.357Z,25.32
2019-05-16T10:21:12.356Z,25.32
2019-05-16T10:22:12.353Z,25.42
2019-05-16T10:23:14.557Z,25.43
2019-05-16T10:24:12.324Z,25.63
2019-05-16T10:25:12.316Z,25.52
2019-05-16T10:26:12.296Z,25.54
2019-05-16T10:27:12.399Z,25.72
2019-05-16T10:28:12.283Z,25.52
2019-05-16T10:29:12.262Z,25.92
2019-05-16T10:30:12.251Z,25.52
2019-05-16T10:31:12.243Z,25.52
2019-05-16T10:32:12.259Z,25.52
2019-05-16T10:33:12.217Z,25.52
2019-05-16T10:34:12.211Z,25.42
2019-05-16T10:35:12.209Z,25.72
2019-05-16T10:36:12.178Z,25.52
2019-05-16T10:37:12.341Z,25.52
2019-05-16T10:38:12.161Z,25.82
2019-05-16T10:39:12.179Z,25.82
2019-05-16T10:40:12.136Z,25.72
2019-05-16T10:41:12.139Z,25.42
2019-05-16T10:42:24.911Z,25.42
2019-05-16T10:43:13.110Z,25.42
2019-05-16T10:44:12.104Z,25.42
2019-05-16T10:45:12.088Z,25.22
2019-05-16T10:46:12.078Z,25.62
2019-05-16T10:47:12.061Z,25.72
2019-05-16T10:48:12.058Z,25.32
2019-05-16T10:49:12.048Z,25.82
2019-05-16T10:50:12.035Z,25.72
2019-05-16T10:51:12.017Z,25.32
2019-05-16T10:52:12.017Z,25.52
2019-05-16T10:53:28.420Z,25.72
2019-05-16T10:54:14.302Z,25.82
2019-05-16T10:55:12.004Z,25.72
2019-05-16T10:56:12.042Z,25.72
2019-05-16T10:57:12.012Z,25.52
2019-05-16T10:58:11.960Z,25.42
2019-05-16T10:59:53.288Z,25.42
2019-05-16T11:00:26.482Z,25.62
2019-05-16T11:01:24.271Z,25.72
2019-05-16T11:02:12.917Z,25.72
2019-05-16T11:03:11.920Z,25.91
2019-05-16T11:04:24.220Z,25.22
2019-05-16T11:05:25.165Z,25.42
2019-05-16T11:06:24.753Z,25.52
2019-05-16T11:07:12.837Z,25.31
2019-05-16T11:08:11.859Z,25.52
2019-05-16T11:09:11.832Z,25.22
2019-05-16T11:10:11.806Z,25.42
2019-05-16T11:11:11.823Z,25.72
2019-05-16T11:12:11.792Z,25.82
2019-05-16T11:13:11.786Z,25.72
2019-05-16T11:14:11.772Z,25.72
2019-05-16T11:15:11.914Z,25.72
2019-05-16T11:16:11.737Z,25.82
2019-05-16T11:17:12.841Z,25.23
2019-05-16T11:18:11.735Z,25.32
2019-05-16T11:19:17.374Z,25.42
2019-05-16T11:20:12.764Z,25.62
2019-05-16T11:21:11.684Z,25.52
2019-05-16T11:22:11.685Z,25.43
2019-05-16T11:23:11.690Z,25.73
2019-05-16T11:24:13.307Z,25.54
2019-05-16T11:25:24.883Z,25.63
2019-05-16T11:26:12.626Z,25.54
2019-05-16T11:27:11.624Z,25.93
2019-05-16T11:28:11.635Z,25.93
2019-05-16T11:29:11.607Z,25.54
2019-05-16T11:30:11.635Z,25.34
2019-05-16T11:31:11.575Z,25.54
2019-05-16T11:32:11.575Z,25.43
2019-05-16T11:33:11.579Z,26.23
2019-05-16T11:34:11.612Z,25.63
2019-05-16T11:35:11.534Z,26.03
2019-05-16T11:36:12.877Z,25.63
2019-05-16T11:37:11.525Z,25.63
2019-05-16T11:38:11.551Z,25.63
2019-05-16T11:39:11.490Z,26.23
2019-05-16T11:40:11.476Z,26.63
2019-05-16T11:41:11.506Z,26.23
2019-05-16T11:42:11.469Z,26.23
2019-05-16T11:43:18.318Z,26.03
2019-05-16T11:44:12.440Z,26.03
2019-05-16T11:45:11.423Z,26.33
2019-05-16T11:46:11.418Z,26.03
2019-05-16T11:47:11.403Z,25.73
2019-05-16T11:48:11.409Z,25.84
2019-05-16T11:49:11.383Z,26.14
2019-05-16T11:50:11.385Z,25.93
2019-05-16T11:51:11.358Z,25.93
2019-05-16T11:52:11.355Z,25.84
2019-05-16T11:53:11.361Z,26.03
2019-05-16T11:54:11.350Z,25.93
2019-05-16T11:55:11.323Z,25.84
2019-05-16T11:56:11.327Z,26.14
2019-05-16T11:57:11.286Z,26.33
2019-05-16T11:58:11.298Z,26.03
2019-05-16T11:59:11.281Z,25.84
2019-05-16T12:00:11.259Z,26.03
2019-05-16T12:01:11.244Z,26.23
2019-05-16T12:02:11.252Z,26.33
2019-05-16T12:03:11.241Z,26.83
2019-05-16T12:04:11.234Z,26.73
2019-05-16T12:05:11.201Z,26.63
2019-05-16T12:06:11.390Z,26.73
2019-05-16T12:07:11.275Z,26.73
2019-05-16T12:08:11.166Z,27.03
2019-05-16T12:09:11.191Z,26.83
2019-05-16T12:10:11.203Z,26.63
2019-05-16T12:11:11.134Z,26.83
2019-05-16T12:12:11.129Z,26.53
2019-05-16T12:13:24.141Z,26.73
2019-05-16T12:14:12.102Z,26.43
2019-05-16T12:15:11.092Z,26.12
2019-05-16T12:16:11.097Z,26.62
2019-05-16T12:17:11.066Z,26.42
2019-05-16T12:18:11.055Z,26.82
2019-05-16T12:19:11.052Z,26.82
2019-05-16T12:20:11.034Z,26.72
2019-05-16T12:21:11.025Z,26.52
2019-05-16T12:22:11.024Z,26.82
2019-05-16T12:23:11.052Z,26.42
2019-05-16T12:24:10.996Z,26.32
2019-05-16T12:25:10.980Z,26.42
2019-05-16T12:26:10.967Z,26.42
2019-05-16T12:27:10.958Z,26.52
2019-05-16T12:28:10.946Z,26.40
2019-05-16T12:29:10.950Z,26.51
2019-05-16T12:30:13.686Z,26.61
2019-05-16T12:31:10.936Z,26.32
2019-05-16T12:32:10.927Z,26.40
2019-05-16T12:33:10.889Z,27.20
2019-05-16T12:34:10.904Z,27.11
2019-05-16T12:35:10.892Z,27.30
2019-05-16T12:36:10.871Z,26.31
2019-05-16T12:37:10.847Z,27.00
2019-05-16T12:38:10.842Z,26.70
2019-05-16T12:39:10.833Z,27.40
2019-05-16T12:40:10.819Z,28.40
2019-05-16T12:41:10.810Z,28.40
2019-05-16T12:42:10.799Z,27.92
2019-05-16T12:43:10.796Z,28.10
2019-05-16T12:44:10.793Z,28.52
2019-05-16T12:45:10.757Z,28.31
2019-05-16T12:46:10.752Z,27.62
2019-05-16T12:47:10.753Z,28.11
2019-05-16T12:48:10.724Z,27.81
2019-05-16T12:49:10.720Z,28.22
2019-05-16T12:50:10.709Z,28.61
2019-05-16T12:51:10.695Z,28.53
2019-05-16T12:52:10.705Z,28.63